createdAt,value
2023-02-23T00:04:51.349Z,25.14
2023-02-23T00:14:51.581Z,30.09
2023-02-23T00:24:51.401Z,22.21
2023-02-23T00:34:51.940Z,30.40
2023-02-23T00:44:52.497Z,33.31
2023-02-23T00:54:52.417Z,33.67
2023-02-23T01:04:52.346Z,19.20
2023-02-23T01:14:52.533Z,19.15
2023-02-23T01:24:52.501Z,27.18
2023-02-23T01:34:52.467Z,37.15
2023-02-23T01:44:55.455Z,16.39
2023-02-23T01:54:55.543Z,26.47
2023-02-23T02:04:58.028Z,30.32
2023-02-23T02:14:59.149Z,21.23
2023-02-23T02:24:59.602Z,31.01
2023-02-23T02:34:59.440Z,44.98
2023-02-23T02:44:59.813Z,29.46
2023-02-23T02:55:00.255Z,48.58
2023-02-23T03:05:19.662Z,24.81
2023-02-23T03:15:37.653Z,81.54
2023-02-23T03:25:56.696Z,79.57
2023-02-23T03:36:16.021Z,78.95
2023-02-23T03:46:35.451Z,50.23
2023-02-23T03:56:54.162Z,38.02
2023-02-23T04:07:12.892Z,62.80
2023-02-23T04:17:12.124Z,47.61
2023-02-23T04:27:12.666Z,45.33
2023-02-23T04:37:12.597Z,53.43
2023-02-23T04:47:12.703Z,58.33
2023-02-23T04:57:12.738Z,102.75
2023-02-23T05:07:12.733Z,36.00
2023-02-23T05:17:12.765Z,32.66
2023-02-23T05:27:13.570Z,30.85
2023-02-23T05:37:14.068Z,56.94
2023-02-23T05:47:14.680Z,40.21
2023-02-23T05:57:15.641Z,70.46
2023-02-23T06:07:15.737Z,131.74
2023-02-23T06:17:15.795Z,73.18
2023-02-23T06:27:15.775Z,44.93
2023-02-23T06:37:15.836Z,54.75
2023-02-23T06:47:15.783Z,54.01
2023-02-23T06:57:16.135Z,55.57
2023-02-23T07:07:15.832Z,37.07
2023-02-23T07:17:17.202Z,49.03
2023-02-23T07:27:17.879Z,25.91
2023-02-23T07:37:17.892Z,47.97
2023-02-23T07:47:17.820Z,48.85
2023-02-23T07:57:19.542Z,45.64
2023-02-23T08:07:19.905Z,44.77
2023-02-23T08:17:19.924Z,48.73
2023-02-23T08:27:20.000Z,76.18
2023-02-23T08:37:19.942Z,56.70
2023-02-23T08:47:21.440Z,37.57
2023-02-23T08:57:21.974Z,39.98
2023-02-23T09:07:22.773Z,45.36
2023-02-23T09:17:23.122Z,48.25
2023-02-23T09:27:22.991Z,21.61
2023-02-23T09:37:24.663Z,24.50
2023-02-23T09:47:25.225Z,18.69
2023-02-23T09:57:25.057Z,19.04
2023-02-23T10:07:25.107Z,21.81
2023-02-23T10:17:25.138Z,32.41
2023-02-23T10:27:25.191Z,32.68
2023-02-23T10:37:25.703Z,32.27
2023-02-23T10:47:26.482Z,28.37
2023-02-23T10:57:27.800Z,29.10
2023-02-23T11:07:29.143Z,27.97
2023-02-23T11:17:29.174Z,34.40
2023-02-23T11:27:29.407Z,29.13
2023-02-23T11:37:29.142Z,32.70
2023-02-23T11:47:29.127Z,22.69
2023-02-23T11:57:29.390Z,28.10
2023-02-23T12:07:31.101Z,26.56
2023-02-23T12:17:31.189Z,29.37
2023-02-23T12:27:31.286Z,24.31
2023-02-23T12:37:31.240Z,14.92
2023-02-23T12:47:31.248Z,32.67
2023-02-23T12:57:31.299Z,16.13
2023-02-23T13:07:33.546Z,26.81
2023-02-23T13:17:35.226Z,21.34
2023-02-23T13:27:35.374Z,29.34
2023-02-23T13:37:35.373Z,37.54
2023-02-23T13:47:35.328Z,16.64
2023-02-23T13:57:35.400Z,14.76
2023-02-23T14:07:35.405Z,22.45
2023-02-23T14:17:35.318Z,14.22
2023-02-23T14:27:42.004Z,11.85
2023-02-23T14:37:39.428Z,16.11
2023-02-23T14:47:39.392Z,15.31
2023-02-23T14:57:39.518Z,19.44
2023-02-23T15:07:41.483Z,8.86
2023-02-23T15:17:41.455Z,10.61
2023-02-23T15:27:43.646Z,13.74
2023-02-23T15:47:44.588Z,26.29
2023-02-23T15:57:46.474Z,35.57
2023-02-23T16:07:49.617Z,18.13
2023-02-23T16:17:49.599Z,14.27
2023-02-23T16:27:50.943Z,19.15
2023-02-23T16:37:51.557Z,16.00
2023-02-23T16:47:51.524Z,16.77
2023-02-23T16:57:51.598Z,23.45
2023-02-23T17:08:04.817Z,16.14
2023-02-23T17:18:04.680Z,23.27
2023-02-23T17:28:04.592Z,16.12
2023-02-23T17:38:04.675Z,19.97
2023-02-23T17:48:04.658Z,22.39
2023-02-23T17:58:04.646Z,9.91
2023-02-23T18:08:04.696Z,17.81
2023-02-23T18:18:04.753Z,14.75
2023-02-23T18:28:04.752Z,14.33
2023-02-23T18:38:04.792Z,19.55
2023-02-23T18:48:07.118Z,9.24
2023-02-23T18:58:07.963Z,16.38
2023-02-23T19:08:10.194Z,9.63
2023-02-23T19:18:10.718Z,13.46
2023-02-23T19:28:12.414Z,31.44
2023-02-23T19:38:14.762Z,13.97
2023-02-23T19:48:15.447Z,19.52
2023-02-23T19:58:15.771Z,15.91
2023-02-23T20:08:17.746Z,36.77
2023-02-23T20:18:19.738Z,12.05
2023-02-23T20:28:19.789Z,19.24
2023-02-23T20:38:19.911Z,10.75
2023-02-23T20:48:19.964Z,9.16
2023-02-23T20:58:21.859Z,12.65
2023-02-23T21:08:22.017Z,18.41
2023-02-23T21:18:21.885Z,8.92
2023-02-23T21:28:21.939Z,13.95
2023-02-23T21:38:23.330Z,9.14
2023-02-23T21:48:29.001Z,5.99
2023-02-23T21:58:29.056Z,14.02
2023-02-23T22:08:29.090Z,15.06
2023-02-23T22:18:29.202Z,14.81
2023-02-23T22:28:28.944Z,13.30
2023-02-23T22:38:30.176Z,14.32
2023-02-23T22:48:29.973Z,11.51
2023-02-23T22:58:31.069Z,6.62
2023-02-23T23:08:31.188Z,11.02
2023-02-23T23:18:32.971Z,11.34
2023-02-23T23:28:35.914Z,13.06
2023-02-23T23:38:37.971Z,10.54
2023-02-23T23:48:39.109Z,21.24
2023-02-23T23:58:39.129Z,30.21
